Terminal Aerodrome Forecast
Issued by NWS Melbourne, FL

Home | Current Version | Previous Version | Text Only | Print | Product List | Glossary On
Versions: 1 2 3 4 5 6 7 8 9 10 11 12 13 14 15 16 17 18 19 20 21 22 23 24
000
FTUS42 KMLB 261700
TAFDAB
TAF
KDAB 261721Z 2618/2718 29012KT P6SM SCT015 OVC110
     FM262100 31010KT P6SM FEW015 SCT150
     FM270000 29004KT P6SM SKC=

USA.gov is the U.S. government's official web portal to all federal, state and local government web resources and services.